sensor_id;sensor_type;location;lat;lon;timestamp;temperature;humidity
40676;DHT22;26359;48.750;9.314;2024-01-15T00:01:14;-1.40;99.90
40676;DHT22;26359;48.750;9.314;2024-01-15T00:03:39;-1.40;99.90
40676;DHT22;26359;48.750;9.314;2024-01-15T00:06:05;-1.30;99.90
40676;DHT22;26359;48.750;9.314;2024-01-15T00:08:30;-1.30;99.90
40676;DHT22;26359;48.750;9.314;2024-01-15T00:10:56;-1.20;99.90
40676;DHT22;26359;48.750;9.314;2024-01-15T00:13:22;-1.10;99.90
40676;DHT22;26359;48.750;9.314;2024-01-15T00:15:47;-1.00;99.90
40676;DHT22;26359;48.750;9.314;2024-01-15T00:18:13;-1.00;99.90
40676;DHT22;26359;48.750;9.314;2024-01-15T00:20:38;-1.00;99.90
40676;DHT22;26359;48.750;9.314;2024-01-15T00:23:04;-0.90;99.90
40676;DHT22;26359;48.750;9.314;2024-01-15T00:25:29;-1.00;99.90
40676;DHT22;26359;48.750;9.314;2024-01-15T00:27:55;-1.00;99.90
40676;DHT22;26359;48.750;9.314;2024-01-15T00:30:20;-1.00;99.90
40676;DHT22;26359;48.750;9.314;2024-01-15T00:32:46;-0.90;99.90
40676;DHT22;26359;48.750;9.314;2024-01-15T00:35:11;-0.90;99.90
40676;DHT22;26359;48.750;9.314;2024-01-15T00:37:37;-0.90;99.90
40676;DHT22;26359;48.750;9.314;2024-01-15T00:40:03;-0.90;99.90
40676;DHT22;26359;48.750;9.314;2024-01-15T00:42:29;-0.80;99.90
40676;DHT22;26359;48.750;9.314;2024-01-15T00:44:55;-0.80;99.90
40676;DHT22;26359;48.750;9.314;2024-01-15T00:47:20;-0.80;99.90
40676;DHT22;26359;48.750;9.314;2024-01-15T00:49:46;-0.80;99.90
40676;DHT22;26359;48.750;9.314;2024-01-15T00:52:11;-0.80;99.90
40676;DHT22;26359;48.750;9.314;2024-01-15T00:54:37;-0.80;99.90
40676;DHT22;26359;48.750;9.314;2024-01-15T00:57:03;-0.80;99.90
40676;DHT22;26359;48.750;9.314;2024-01-15T00:59:29;-0.80;99.90
40676;DHT22;26359;48.750;9.314;2024-01-15T01:01:54;-0.80;99.90
40676;DHT22;26359;48.750;9.314;2024-01-15T01:04:20;-0.70;99.90
40676;DHT22;26359;48.750;9.314;2024-01-15T01:06:45;-0.80;99.90
40676;DHT22;26359;48.750;9.314;2024-01-15T01:09:11;-0.80;99.90
40676;DHT22;26359;48.750;9.314;2024-01-15T01:11:36;-0.90;99.90
40676;DHT22;26359;48.750;9.314;2024-01-15T01:14:02;-0.90;99.90
40676;DHT22;26359;48.750;9.314;2024-01-15T01:16:28;-0.90;99.90
40676;DHT22;26359;48.750;9.314;2024-01-15T01:18:53;-0.90;99.90
40676;DHT22;26359;48.750;9.314;2024-01-15T01:21:19;-0.90;99.90
40676;DHT22;26359;48.750;9.314;2024-01-15T01:23:45;-0.90;99.90
40676;DHT22;26359;48.750;9.314;2024-01-15T01:26:15;-1.00;99.90
40676;DHT22;26359;48.750;9.314;2024-01-15T01:28:41;-1.00;99.90
40676;DHT22;26359;48.750;9.314;2024-01-15T01:31:06;-0.90;99.90
40676;DHT22;26359;48.750;9.314;2024-01-15T01:33:33;-0.90;99.90
40676;DHT22;26359;48.750;9.314;2024-01-15T01:35:59;-0.90;99.90
40676;DHT22;26359;48.750;9.314;2024-01-15T01:38:24;-0.90;99.90
40676;DHT22;26359;48.750;9.314;2024-01-15T01:40:50;-0.90;99.90
40676;DHT22;26359;48.750;9.314;2024-01-15T01:43:15;-0.80;99.90
40676;DHT22;26359;48.750;9.314;2024-01-15T01:45:41;-0.90;99.90
40676;DHT22;26359;48.750;9.314;2024-01-15T01:48:07;-0.90;99.90
40676;DHT22;26359;48.750;9.314;2024-01-15T01:50:33;-0.90;99.90
40676;DHT22;26359;48.750;9.314;2024-01-15T01:53:00;-0.90;99.90
40676;DHT22;26359;48.750;9.314;2024-01-15T01:55:27;-0.90;99.90
40676;DHT22;26359;48.750;9.314;2024-01-15T01:57:55;-0.80;99.90
40676;DHT22;26359;48.750;9.314;2024-01-15T02:00:20;-0.80;99.90
40676;DHT22;26359;48.750;9.314;2024-01-15T02:02:46;-0.80;99.90
40676;DHT22;26359;48.750;9.314;2024-01-15T02:05:13;-0.70;99.90
40676;DHT22;26359;48.750;9.314;2024-01-15T02:07:39;-0.70;99.90
40676;DHT22;26359;48.750;9.314;2024-01-15T02:10:06;-0.70;99.90
40676;DHT22;26359;48.750;9.314;2024-01-15T02:12:32;-0.70;99.90
40676;DHT22;26359;48.750;9.314;2024-01-15T02:14:57;-0.80;99.90
40676;DHT22;26359;48.750;9.314;2024-01-15T02:17:23;-0.80;99.90
40676;DHT22;26359;48.750;9.314;2024-01-15T02:19:49;-0.80;99.90
40676;DHT22;26359;48.750;9.314;2024-01-15T02:22:15;-0.80;99.90
40676;DHT22;26359;48.750;9.314;2024-01-15T02:24:40;-0.70;99.90
40676;DHT22;26359;48.750;9.314;2024-01-15T02:27:06;-0.70;99.90
40676;DHT22;26359;48.750;9.314;2024-01-15T02:29:32;-0.70;99.90
40676;DHT22;26359;48.750;9.314;2024-01-15T02:31:58;-0.60;99.90
40676;DHT22;26359;48.750;9.314;2024-01-15T02:34:23;-0.60;99.90
40676;DHT22;26359;48.750;9.314;2024-01-15T02:36:49;-0.60;99.90
40676;DHT22;26359;48.750;9.314;2024-01-15T02:39:14;-0.60;99.90
40676;DHT22;26359;48.750;9.314;2024-01-15T02:41:40;-0.60;99.90
40676;DHT22;26359;48.750;9.314;2024-01-15T02:44:05;-0.50;99.90
40676;DHT22;26359;48.750;9.314;2024-01-15T02:46:31;-0.50;99.90
40676;DHT22;26359;48.750;9.314;2024-01-15T02:48:56;-0.50;99.90
40676;DHT22;26359;48.750;9.314;2024-01-15T02:51:22;-0.50;99.90
40676;DHT22;26359;48.750;9.314;2024-01-15T02:53:49;-0.60;99.90
40676;DHT22;26359;48.750;9.314;2024-01-15T02:56:15;-0.50;99.90
40676;DHT22;26359;48.750;9.314;2024-01-15T02:58:41;-0.50;99.90
40676;DHT22;26359;48.750;9.314;2024-01-15T03:01:06;-0.60;99.90
40676;DHT22;26359;48.750;9.314;2024-01-15T03:03:32;-0.70;99.90
40676;DHT22;26359;48.750;9.314;2024-01-15T03:05:58;-0.70;99.90
40676;DHT22;26359;48.750;9.314;2024-01-15T03:08:24;-0.70;99.90
40676;DHT22;26359;48.750;9.314;2024-01-15T03:10:49;-0.80;99.90
40676;DHT22;26359;48.750;9.314;2024-01-15T03:13:15;-0.80;99.90
40676;DHT22;26359;48.750;9.314;2024-01-15T03:15:40;-0.90;99.90
40676;DHT22;26359;48.750;9.314;2024-01-15T03:18:06;-1.00;99.90
40676;DHT22;26359;48.750;9.314;2024-01-15T03:20:32;-0.90;99.90
40676;DHT22;26359;48.750;9.314;2024-01-15T03:22:57;-0.90;99.90
40676;DHT22;26359;48.750;9.314;2024-01-15T03:25:23;-1.00;99.90
40676;DHT22;26359;48.750;9.314;2024-01-15T03:27:48;-1.00;99.90
40676;DHT22;26359;48.750;9.314;2024-01-15T03:30:14;-1.00;99.90
40676;DHT22;26359;48.750;9.314;2024-01-15T03:32:39;-1.10;99.90
40676;DHT22;26359;48.750;9.314;2024-01-15T03:35:05;-1.00;99.90
40676;DHT22;26359;48.750;9.314;2024-01-15T03:37:31;-1.10;99.90
40676;DHT22;26359;48.750;9.314;2024-01-15T03:39:57;-1.10;99.90
40676;DHT22;26359;48.750;9.314;2024-01-15T03:42:22;-1.10;99.90
40676;DHT22;26359;48.750;9.314;2024-01-15T03:44:48;-1.10;99.90
40676;DHT22;26359;48.750;9.314;2024-01-15T03:47:13;-1.10;99.90
40676;DHT22;26359;48.750;9.314;2024-01-15T03:49:39;-1.20;99.90
40676;DHT22;26359;48.750;9.314;2024-01-15T03:52:04;-1.10;99.90
40676;DHT22;26359;48.750;9.314;2024-01-15T03:54:30;-1.10;99.90
40676;DHT22;26359;48.750;9.314;2024-01-15T03:56:55;-1.10;99.90
40676;DHT22;26359;48.750;9.314;2024-01-15T03:59:21;-1.10;99.90
40676;DHT22;26359;48.750;9.314;2024-01-15T04:01:50;-1.10;99.90
40676;DHT22;26359;48.750;9.314;2024-01-15T04:04:16;-1.10;99.90
40676;DHT22;26359;48.750;9.314;2024-01-15T04:06:42;-1.10;99.90
40676;DHT22;26359;48.750;9.314;2024-01-15T04:09:07;-1.00;99.90
40676;DHT22;26359;48.750;9.314;2024-01-15T04:11:33;-1.00;99.90
40676;DHT22;26359;48.750;9.314;2024-01-15T04:13:58;-0.90;99.90
40676;DHT22;26359;48.750;9.314;2024-01-15T04:16:24;-0.90;99.90
40676;DHT22;26359;48.750;9.314;2024-01-15T04:18:49;-0.90;99.90
40676;DHT22;26359;48.750;9.314;2024-01-15T04:21:17;-0.90;99.90
40676;DHT22;26359;48.750;9.314;2024-01-15T04:23:42;-0.90;99.90
40676;DHT22;26359;48.750;9.314;2024-01-15T04:26:08;-0.80;99.90
40676;DHT22;26359;48.750;9.314;2024-01-15T04:28:34;-0.80;99.90
40676;DHT22;26359;48.750;9.314;2024-01-15T04:30:59;-0.70;99.90
40676;DHT22;26359;48.750;9.314;2024-01-15T04:33:25;-0.70;99.90
40676;DHT22;26359;48.750;9.314;2024-01-15T04:35:50;-0.80;99.90
40676;DHT22;26359;48.750;9.314;2024-01-15T04:38:16;-0.80;99.90
40676;DHT22;26359;48.750;9.314;2024-01-15T04:40:41;-0.70;99.90
40676;DHT22;26359;48.750;9.314;2024-01-15T04:43:07;-0.70;99.90
40676;DHT22;26359;48.750;9.314;2024-01-15T04:45:32;-0.70;99.90
40676;DHT22;26359;48.750;9.314;2024-01-15T04:47:58;-0.70;99.90
40676;DHT22;26359;48.750;9.314;2024-01-15T04:50:23;-0.70;99.90
40676;DHT22;26359;48.750;9.314;2024-01-15T04:52:50;-0.70;99.90
40676;DHT22;26359;48.750;9.314;2024-01-15T04:55:15;-0.70;99.90
40676;DHT22;26359;48.750;9.314;2024-01-15T04:57:41;-0.60;99.90
40676;DHT22;26359;48.750;9.314;2024-01-15T05:00:06;-0.70;99.90
40676;DHT22;26359;48.750;9.314;2024-01-15T05:02:32;-0.60;99.90
40676;DHT22;26359;48.750;9.314;2024-01-15T05:04:58;-0.60;99.90
40676;DHT22;26359;48.750;9.314;2024-01-15T05:07:23;-0.60;99.90
40676;DHT22;26359;48.750;9.314;2024-01-15T05:09:49;-0.60;99.90
40676;DHT22;26359;48.750;9.314;2024-01-15T05:12:14;-0.50;99.90
40676;DHT22;26359;48.750;9.314;2024-01-15T05:14:40;-0.50;99.90
40676;DHT22;26359;48.750;9.314;2024-01-15T05:17:05;-0.40;99.90
40676;DHT22;26359;48.750;9.314;2024-01-15T05:19:31;-0.30;99.90
40676;DHT22;26359;48.750;9.314;2024-01-15T05:21:56;-0.30;99.90
40676;DHT22;26359;48.750;9.314;2024-01-15T05:24:22;-0.40;99.90
40676;DHT22;26359;48.750;9.314;2024-01-15T05:26:47;-0.30;99.90
40676;DHT22;26359;48.750;9.314;2024-01-15T05:29:13;-0.30;99.90
40676;DHT22;26359;48.750;9.314;2024-01-15T05:31:38;-0.30;99.90
40676;DHT22;26359;48.750;9.314;2024-01-15T05:34:04;-0.20;99.90
40676;DHT22;26359;48.750;9.314;2024-01-15T05:36:30;-0.10;99.90
40676;DHT22;26359;48.750;9.314;2024-01-15T05:38:55;-0.10;99.90
40676;DHT22;26359;48.750;9.314;2024-01-15T05:41:21;0.00;99.90
40676;DHT22;26359;48.750;9.314;2024-01-15T05:43:46;0.00;99.90
40676;DHT22;26359;48.750;9.314;2024-01-15T05:46:12;0.00;99.90
40676;DHT22;26359;48.750;9.314;2024-01-15T05:48:37;0.00;99.90
40676;DHT22;26359;48.750;9.314;2024-01-15T05:51:03;0.00;99.90
40676;DHT22;26359;48.750;9.314;2024-01-15T05:53:28;0.00;99.90
40676;DHT22;26359;48.750;9.314;2024-01-15T05:55:54;0.00;99.90
40676;DHT22;26359;48.750;9.314;2024-01-15T05:58:21;0.00;99.90
40676;DHT22;26359;48.750;9.314;2024-01-15T06:00:46;0.00;99.90
40676;DHT22;26359;48.750;9.314;2024-01-15T06:03:13;0.00;99.90
40676;DHT22;26359;48.750;9.314;2024-01-15T06:05:38;0.00;99.90
40676;DHT22;26359;48.750;9.314;2024-01-15T06:08:05;0.00;99.90
40676;DHT22;26359;48.750;9.314;2024-01-15T06:10:30;0.00;99.90
40676;DHT22;26359;48.750;9.314;2024-01-15T06:12:56;0.00;99.90
40676;DHT22;26359;48.750;9.314;2024-01-15T06:15:21;0.00;99.90
40676;DHT22;26359;48.750;9.314;2024-01-15T06:17:47;0.00;99.90
40676;DHT22;26359;48.750;9.314;2024-01-15T06:20:13;-0.10;99.90
40676;DHT22;26359;48.750;9.314;2024-01-15T06:22:38;0.00;99.90
40676;DHT22;26359;48.750;9.314;2024-01-15T06:25:08;0.00;99.90
40676;DHT22;26359;48.750;9.314;2024-01-15T06:27:33;0.00;99.90
40676;DHT22;26359;48.750;9.314;2024-01-15T06:29:59;0.00;99.90
40676;DHT22;26359;48.750;9.314;2024-01-15T06:32:25;0.00;99.90
40676;DHT22;26359;48.750;9.314;2024-01-15T06:34:50;0.00;99.90
40676;DHT22;26359;48.750;9.314;2024-01-15T06:37:16;0.00;99.90
40676;DHT22;26359;48.750;9.314;2024-01-15T06:39:41;0.00;99.90
40676;DHT22;26359;48.750;9.314;2024-01-15T06:42:07;0.10;99.90
40676;DHT22;26359;48.750;9.314;2024-01-15T06:44:32;0.00;99.90
40676;DHT22;26359;48.750;9.314;2024-01-15T06:46:58;0.10;99.90
40676;DHT22;26359;48.750;9.314;2024-01-15T06:49:28;0.10;99.90
40676;DHT22;26359;48.750;9.314;2024-01-15T06:51:54;0.10;99.90
40676;DHT22;26359;48.750;9.314;2024-01-15T06:54:19;0.00;99.90
40676;DHT22;26359;48.750;9.314;2024-01-15T06:56:45;0.10;99.90
40676;DHT22;26359;48.750;9.314;2024-01-15T06:59:11;0.00;99.90
40676;DHT22;26359;48.750;9.314;2024-01-15T07:01:36;0.10;99.90
40676;DHT22;26359;48.750;9.314;2024-01-15T07:04:02;0.10;99.90
40676;DHT22;26359;48.750;9.314;2024-01-15T07:06:28;0.10;99.90
40676;DHT22;26359;48.750;9.314;2024-01-15T07:08:56;0.10;99.90
40676;DHT22;26359;48.750;9.314;2024-01-15T07:11:21;0.00;99.90
40676;DHT22;26359;48.750;9.314;2024-01-15T07:13:47;0.00;99.90
40676;DHT22;26359;48.750;9.314;2024-01-15T07:16:12;0.10;99.90
40676;DHT22;26359;48.750;9.314;2024-01-15T07:18:38;0.10;99.90
40676;DHT22;26359;48.750;9.314;2024-01-15T07:21:04;0.10;99.90
40676;DHT22;26359;48.750;9.314;2024-01-15T07:23:31;0.10;99.90
40676;DHT22;26359;48.750;9.314;2024-01-15T07:25:57;0.20;99.90
40676;DHT22;26359;48.750;9.314;2024-01-15T07:28:22;0.20;99.90
40676;DHT22;26359;48.750;9.314;2024-01-15T07:30:48;0.30;99.90
40676;DHT22;26359;48.750;9.314;2024-01-15T07:33:13;0.30;99.90
40676;DHT22;26359;48.750;9.314;2024-01-15T07:35:39;0.30;99.90
40676;DHT22;26359;48.750;9.314;2024-01-15T07:38:04;0.30;99.90
40676;DHT22;26359;48.750;9.314;2024-01-15T07:40:30;0.40;99.90
40676;DHT22;26359;48.750;9.314;2024-01-15T07:42:55;0.40;99.90
40676;DHT22;26359;48.750;9.314;2024-01-15T07:45:21;0.40;99.90
40676;DHT22;26359;48.750;9.314;2024-01-15T07:47:46;0.40;99.90
40676;DHT22;26359;48.750;9.314;2024-01-15T07:50:12;0.50;99.90
40676;DHT22;26359;48.750;9.314;2024-01-15T07:52:39;0.50;99.90
40676;DHT22;26359;48.750;9.314;2024-01-15T07:55:05;0.50;99.90
40676;DHT22;26359;48.750;9.314;2024-01-15T07:57:31;0.50;99.90
40676;DHT22;26359;48.750;9.314;2024-01-15T07:59:56;0.50;99.90
40676;DHT22;26359;48.750;9.314;2024-01-15T08:02:22;0.50;99.90
40676;DHT22;26359;48.750;9.314;2024-01-15T08:04:48;0.50;99.90
40676;DHT22;26359;48.750;9.314;2024-01-15T08:07:13;0.60;99.90
40676;DHT22;26359;48.750;9.314;2024-01-15T08:09:39;0.50;99.90
40676;DHT22;26359;48.750;9.314;2024-01-15T08:12:05;0.50;99.90
40676;DHT22;26359;48.750;9.314;2024-01-15T08:14:31;0.60;99.90
40676;DHT22;26359;48.750;9.314;2024-01-15T08:16:57;0.60;99.90
40676;DHT22;26359;48.750;9.314;2024-01-15T08:19:22;0.60;99.90
40676;DHT22;26359;48.750;9.314;2024-01-15T08:21:48;0.60;99.90
40676;DHT22;26359;48.750;9.314;2024-01-15T08:24:14;0.60;99.90
40676;DHT22;26359;48.750;9.314;2024-01-15T08:26:40;0.60;99.90
40676;DHT22;26359;48.750;9.314;2024-01-15T08:29:06;0.60;99.90
40676;DHT22;26359;48.750;9.314;2024-01-15T08:31:31;0.60;99.90
40676;DHT22;26359;48.750;9.314;2024-01-15T08:33:57;0.70;99.90
40676;DHT22;26359;48.750;9.314;2024-01-15T08:36:23;0.70;99.90
40676;DHT22;26359;48.750;9.314;2024-01-15T08:38:49;0.70;99.90
40676;DHT22;26359;48.750;9.314;2024-01-15T08:41:15;0.70;99.90
40676;DHT22;26359;48.750;9.314;2024-01-15T08:43:40;0.70;99.90
40676;DHT22;26359;48.750;9.314;2024-01-15T08:46:07;0.70;99.90
40676;DHT22;26359;48.750;9.314;2024-01-15T08:48:32;0.70;99.90
40676;DHT22;26359;48.750;9.314;2024-01-15T08:50:58;0.80;99.90
40676;DHT22;26359;48.750;9.314;2024-01-15T08:53:24;0.80;99.90
40676;DHT22;26359;48.750;9.314;2024-01-15T08:55:49;0.80;99.90
40676;DHT22;26359;48.750;9.314;2024-01-15T08:58:15;0.90;99.90
40676;DHT22;26359;48.750;9.314;2024-01-15T09:00:40;1.00;99.90
40676;DHT22;26359;48.750;9.314;2024-01-15T09:03:06;1.00;99.90
40676;DHT22;26359;48.750;9.314;2024-01-15T09:05:33;1.00;99.90
40676;DHT22;26359;48.750;9.314;2024-01-15T09:07:59;1.00;99.90
40676;DHT22;26359;48.750;9.314;2024-01-15T09:10:24;1.10;99.90
40676;DHT22;26359;48.750;9.314;2024-01-15T09:12:50;1.10;99.90
40676;DHT22;26359;48.750;9.314;2024-01-15T09:15:16;1.10;99.90
40676;DHT22;26359;48.750;9.314;2024-01-15T09:17:42;1.10;99.90
40676;DHT22;26359;48.750;9.314;2024-01-15T09:20:09;1.10;99.90
40676;DHT22;26359;48.750;9.314;2024-01-15T09:22:35;1.10;99.90
40676;DHT22;26359;48.750;9.314;2024-01-15T09:25:00;1.10;99.90
40676;DHT22;26359;48.750;9.314;2024-01-15T09:27:26;1.20;99.90
40676;DHT22;26359;48.750;9.314;2024-01-15T09:29:54;1.20;99.90
40676;DHT22;26359;48.750;9.314;2024-01-15T09:32:20;1.20;99.90
40676;DHT22;26359;48.750;9.314;2024-01-15T09:34:46;1.20;99.90
40676;DHT22;26359;48.750;9.314;2024-01-15T09:37:13;1.20;99.90
40676;DHT22;26359;48.750;9.314;2024-01-15T09:39:39;1.30;99.90
40676;DHT22;26359;48.750;9.314;2024-01-15T09:42:05;1.30;99.90
40676;DHT22;26359;48.750;9.314;2024-01-15T09:44:31;1.40;99.90
40676;DHT22;26359;48.750;9.314;2024-01-15T09:46:57;1.40;99.90
40676;DHT22;26359;48.750;9.314;2024-01-15T09:49:23;1.40;99.90
40676;DHT22;26359;48.750;9.314;2024-01-15T09:51:49;1.40;99.90
40676;DHT22;26359;48.750;9.314;2024-01-15T09:54:15;1.50;99.90
40676;DHT22;26359;48.750;9.314;2024-01-15T09:56:45;1.50;99.90
40676;DHT22;26359;48.750;9.314;2024-01-15T09:59:16;1.60;99.90
40676;DHT22;26359;48.750;9.314;2024-01-15T10:01:43;1.60;99.90
40676;DHT22;26359;48.750;9.314;2024-01-15T10:04:10;1.60;99.90
40676;DHT22;26359;48.750;9.314;2024-01-15T10:06:38;1.60;99.90
40676;DHT22;26359;48.750;9.314;2024-01-15T10:09:05;1.60;99.90
40676;DHT22;26359;48.750;9.314;2024-01-15T10:11:30;1.70;99.90
40676;DHT22;26359;48.750;9.314;2024-01-15T10:13:57;1.70;99.90
40676;DHT22;26359;48.750;9.314;2024-01-15T10:16:23;1.70;99.90
40676;DHT22;26359;48.750;9.314;2024-01-15T10:18:49;1.70;99.90
40676;DHT22;26359;48.750;9.314;2024-01-15T10:21:15;1.70;99.90
40676;DHT22;26359;48.750;9.314;2024-01-15T10:23:41;1.80;99.90
40676;DHT22;26359;48.750;9.314;2024-01-15T10:26:07;1.70;99.90
40676;DHT22;26359;48.750;9.314;2024-01-15T10:28:33;1.80;99.90
40676;DHT22;26359;48.750;9.314;2024-01-15T10:30:59;1.80;99.90
40676;DHT22;26359;48.750;9.314;2024-01-15T10:33:25;1.80;99.90
40676;DHT22;26359;48.750;9.314;2024-01-15T10:35:54;1.80;99.90
40676;DHT22;26359;48.750;9.314;2024-01-15T10:38:21;1.80;99.90
40676;DHT22;26359;48.750;9.314;2024-01-15T10:40:54;1.80;99.90
40676;DHT22;26359;48.750;9.314;2024-01-15T10:43:21;1.80;99.90
40676;DHT22;26359;48.750;9.314;2024-01-15T10:45:48;1.80;99.90
40676;DHT22;26359;48.750;9.314;2024-01-15T10:48:14;1.80;99.90
40676;DHT22;26359;48.750;9.314;2024-01-15T10:50:41;1.80;99.90
40676;DHT22;26359;48.750;9.314;2024-01-15T10:53:08;1.80;99.90
40676;DHT22;26359;48.750;9.314;2024-01-15T10:55:35;1.90;99.90
40676;DHT22;26359;48.750;9.314;2024-01-15T10:58:02;1.90;99.90
40676;DHT22;26359;48.750;9.314;2024-01-15T11:00:29;1.90;99.90
40676;DHT22;26359;48.750;9.314;2024-01-15T11:02:55;1.90;99.90
40676;DHT22;26359;48.750;9.314;2024-01-15T11:05:22;1.90;99.90
40676;DHT22;26359;48.750;9.314;2024-01-15T11:07:50;1.80;99.90
40676;DHT22;26359;48.750;9.314;2024-01-15T11:10:39;1.90;99.90
40676;DHT22;26359;48.750;9.314;2024-01-15T11:18:21;1.90;99.90
40676;DHT22;26359;48.750;9.314;2024-01-15T11:23:55;1.80;99.90
40676;DHT22;26359;48.750;9.314;2024-01-15T11:26:35;1.90;99.90
40676;DHT22;26359;48.750;9.314;2024-01-15T11:29:06;1.90;99.90
40676;DHT22;26359;48.750;9.314;2024-01-15T11:34:08;1.80;99.90
40676;DHT22;26359;48.750;9.314;2024-01-15T11:41:59;2.00;99.90
40676;DHT22;26359;48.750;9.314;2024-01-15T11:44:26;2.00;99.90
40676;DHT22;26359;48.750;9.314;2024-01-15T11:47:05;1.90;99.90
40676;DHT22;26359;48.750;9.314;2024-01-15T11:49:39;1.90;99.90
40676;DHT22;26359;48.750;9.314;2024-01-15T11:52:11;1.90;99.90
40676;DHT22;26359;48.750;9.314;2024-01-15T11:54:38;1.90;99.90
40676;DHT22;26359;48.750;9.314;2024-01-15T11:57:10;1.90;99.90
40676;DHT22;26359;48.750;9.314;2024-01-15T11:59:42;1.90;99.90
40676;DHT22;26359;48.750;9.314;2024-01-15T12:02:08;1.90;99.90
40676;DHT22;26359;48.750;9.314;2024-01-15T12:04:36;1.90;99.90
40676;DHT22;26359;48.750;9.314;2024-01-15T12:07:01;1.90;99.90
40676;DHT22;26359;48.750;9.314;2024-01-15T12:09:27;1.80;99.90
40676;DHT22;26359;48.750;9.314;2024-01-15T12:12:00;1.80;99.90
40676;DHT22;26359;48.750;9.314;2024-01-15T12:14:31;1.80;99.90
40676;DHT22;26359;48.750;9.314;2024-01-15T12:16:57;1.70;99.90
40676;DHT22;26359;48.750;9.314;2024-01-15T12:19:23;1.70;99.90
40676;DHT22;26359;48.750;9.314;2024-01-15T12:21:51;1.70;99.90
40676;DHT22;26359;48.750;9.314;2024-01-15T12:24:17;1.70;99.90
40676;DHT22;26359;48.750;9.314;2024-01-15T12:26:42;1.70;99.90
40676;DHT22;26359;48.750;9.314;2024-01-15T12:29:09;1.60;99.90
40676;DHT22;26359;48.750;9.314;2024-01-15T12:31:35;1.50;99.90
40676;DHT22;26359;48.750;9.314;2024-01-15T12:34:01;1.50;99.90
40676;DHT22;26359;48.750;9.314;2024-01-15T12:36:30;1.30;99.90
40676;DHT22;26359;48.750;9.314;2024-01-15T12:38:59;1.20;99.90
40676;DHT22;26359;48.750;9.314;2024-01-15T12:41:25;1.10;99.90
40676;DHT22;26359;48.750;9.314;2024-01-15T12:43:50;1.00;99.90
40676;DHT22;26359;48.750;9.314;2024-01-15T12:46:16;0.70;99.90
40676;DHT22;26359;48.750;9.314;2024-01-15T12:48:42;0.70;99.90
40676;DHT22;26359;48.750;9.314;2024-01-15T12:51:08;0.70;99.90
40676;DHT22;26359;48.750;9.314;2024-01-15T12:53:34;0.60;99.90
40676;DHT22;26359;48.750;9.314;2024-01-15T12:56:00;0.70;99.90
40676;DHT22;26359;48.750;9.314;2024-01-15T12:58:25;0.60;99.90
40676;DHT22;26359;48.750;9.314;2024-01-15T13:00:51;0.60;99.90
40676;DHT22;26359;48.750;9.314;2024-01-15T13:03:17;0.60;99.90
40676;DHT22;26359;48.750;9.314;2024-01-15T13:05:43;0.60;99.90
40676;DHT22;26359;48.750;9.314;2024-01-15T13:08:10;0.50;99.90
40676;DHT22;26359;48.750;9.314;2024-01-15T13:10:36;0.50;99.90
40676;DHT22;26359;48.750;9.314;2024-01-15T13:13:01;0.60;99.90
40676;DHT22;26359;48.750;9.314;2024-01-15T13:15:27;0.60;99.90
40676;DHT22;26359;48.750;9.314;2024-01-15T13:17:52;0.70;99.90
40676;DHT22;26359;48.750;9.314;2024-01-15T13:20:18;0.70;99.90
40676;DHT22;26359;48.750;9.314;2024-01-15T13:22:43;0.70;99.90
40676;DHT22;26359;48.750;9.314;2024-01-15T13:25:09;0.70;99.90
40676;DHT22;26359;48.750;9.314;2024-01-15T13:27:36;0.70;99.90
40676;DHT22;26359;48.750;9.314;2024-01-15T13:30:02;0.70;99.90
40676;DHT22;26359;48.750;9.314;2024-01-15T13:32:28;0.80;99.90
40676;DHT22;26359;48.750;9.314;2024-01-15T13:34:57;0.70;99.90
40676;DHT22;26359;48.750;9.314;2024-01-15T13:37:23;0.70;99.90
40676;DHT22;26359;48.750;9.314;2024-01-15T13:39:51;0.80;99.90
40676;DHT22;26359;48.750;9.314;2024-01-15T13:42:18;0.80;99.90
40676;DHT22;26359;48.750;9.314;2024-01-15T13:44:43;0.90;99.90
40676;DHT22;26359;48.750;9.314;2024-01-15T13:47:09;0.90;99.90
40676;DHT22;26359;48.750;9.314;2024-01-15T13:49:35;0.90;99.90
40676;DHT22;26359;48.750;9.314;2024-01-15T13:52:02;0.90;99.90
40676;DHT22;26359;48.750;9.314;2024-01-15T13:54:29;1.00;99.90
40676;DHT22;26359;48.750;9.314;2024-01-15T13:56:55;1.00;99.90
40676;DHT22;26359;48.750;9.314;2024-01-15T13:59:21;1.00;99.90
40676;DHT22;26359;48.750;9.314;2024-01-15T14:01:47;0.90;99.90
40676;DHT22;26359;48.750;9.314;2024-01-15T14:04:12;1.00;99.90
40676;DHT22;26359;48.750;9.314;2024-01-15T14:06:38;1.00;99.90
40676;DHT22;26359;48.750;9.314;2024-01-15T14:09:04;1.00;99.90
40676;DHT22;26359;48.750;9.314;2024-01-15T14:11:30;1.00;99.90
40676;DHT22;26359;48.750;9.314;2024-01-15T14:13:56;1.00;99.90
40676;DHT22;26359;48.750;9.314;2024-01-15T14:16:22;1.00;99.90
40676;DHT22;26359;48.750;9.314;2024-01-15T14:18:47;1.00;99.90
40676;DHT22;26359;48.750;9.314;2024-01-15T14:21:13;1.00;99.90
40676;DHT22;26359;48.750;9.314;2024-01-15T14:23:39;1.00;99.90
40676;DHT22;26359;48.750;9.314;2024-01-15T14:26:05;0.90;99.90
40676;DHT22;26359;48.750;9.314;2024-01-15T14:28:30;0.90;99.90
40676;DHT22;26359;48.750;9.314;2024-01-15T14:30:56;0.90;99.90
40676;DHT22;26359;48.750;9.314;2024-01-15T14:33:23;0.90;99.90
40676;DHT22;26359;48.750;9.314;2024-01-15T14:35:49;1.00;99.90
40676;DHT22;26359;48.750;9.314;2024-01-15T14:38:14;1.00;99.90
40676;DHT22;26359;48.750;9.314;2024-01-15T14:40:40;1.00;99.90
40676;DHT22;26359;48.750;9.314;2024-01-15T14:43:06;1.00;99.90
40676;DHT22;26359;48.750;9.314;2024-01-15T14:45:31;1.00;99.90
40676;DHT22;26359;48.750;9.314;2024-01-15T14:47:57;1.00;99.90
40676;DHT22;26359;48.750;9.314;2024-01-15T14:50:23;0.90;99.90
40676;DHT22;26359;48.750;9.314;2024-01-15T14:52:49;0.80;99.90
40676;DHT22;26359;48.750;9.314;2024-01-15T14:55:14;0.80;99.90
40676;DHT22;26359;48.750;9.314;2024-01-15T14:57:40;0.80;99.90
40676;DHT22;26359;48.750;9.314;2024-01-15T15:00:07;0.60;99.90
40676;DHT22;26359;48.750;9.314;2024-01-15T15:02:34;0.50;99.90
40676;DHT22;26359;48.750;9.314;2024-01-15T15:05:01;0.50;99.90
40676;DHT22;26359;48.750;9.314;2024-01-15T15:07:27;0.40;99.90
40676;DHT22;26359;48.750;9.314;2024-01-15T15:09:52;0.40;99.90
40676;DHT22;26359;48.750;9.314;2024-01-15T15:12:18;0.30;99.90
40676;DHT22;26359;48.750;9.314;2024-01-15T15:14:43;0.30;99.90
40676;DHT22;26359;48.750;9.314;2024-01-15T15:17:09;0.30;99.90
40676;DHT22;26359;48.750;9.314;2024-01-15T15:19:35;0.30;99.90
40676;DHT22;26359;48.750;9.314;2024-01-15T15:22:01;0.30;99.90
40676;DHT22;26359;48.750;9.314;2024-01-15T15:24:26;0.30;99.90
40676;DHT22;26359;48.750;9.314;2024-01-15T15:26:52;0.30;99.90
40676;DHT22;26359;48.750;9.314;2024-01-15T15:29:18;0.30;99.90
40676;DHT22;26359;48.750;9.314;2024-01-15T15:31:44;0.30;99.90
40676;DHT22;26359;48.750;9.314;2024-01-15T15:34:09;0.30;99.90
40676;DHT22;26359;48.750;9.314;2024-01-15T15:36:35;0.30;99.90
40676;DHT22;26359;48.750;9.314;2024-01-15T15:39:01;0.30;99.90
40676;DHT22;26359;48.750;9.314;2024-01-15T15:41:26;0.40;99.90
40676;DHT22;26359;48.750;9.314;2024-01-15T15:43:53;0.40;99.90
40676;DHT22;26359;48.750;9.314;2024-01-15T15:46:19;0.50;99.90
40676;DHT22;26359;48.750;9.314;2024-01-15T15:48:44;0.50;99.90